Terminal Aerodrome Forecast
Issued by NWS

Home | Current Version | Previous Version | Text Only | Print | Product List | Glossary On
Versions: 1 2 3 4 5 6 7 8 9 10 11 12
000
FTUS42 TJSJ 281100
TAFISX
TAF
TISX 281130Z 2812/0112 07011KT P6SM VCSH FEW025 BKN070
      TEMPO 2812/2813 11017G28KT -SHRA SCT030 BKN050
     FM281430 10017G27KT P6SM VCSH FEW030
     FM282300 09012KT P6SM VCSH FEW030
      AMD NOT SKED=

USA.gov is the U.S. government's official web portal to all federal, state and local government web resources and services.